Time;durP1;ratioP1;P1;durP2;ratioP2;P2;SDS_P1;SDS_P2;PMS_P1;PMS_P2;Temp;Humidity;BMP_temperature;BMP_pressure;BME280_temperature;BME280_humidity;BME280_pressure;Samples;Min_cycle;Max_cycle;Signal;HPM_P1;HPM_P2
2022/11/05 00:09:40;;;;;;;2.25;1.15;;;;;;;2.82;66.11;100010.72;5051467;28;20128;-43
2022/11/05 00:17:39;;;;;;;2.08;1.27;;;;;;;2.91;66.31;100041.56;5047012;28;20469;-40
2022/11/05 00:20:07;;;;;;;1.50;0.80;;;;;;;2.92;65.97;100043.28;5030976;28;20049;-42
2022/11/05 00:25:20;;;;;;;1.17;0.80;;;;;;;2.92;65.97;100040.69;5024506;28;20186;-41
2022/11/05 00:27:52;;;;;;;3.60;1.42;;;;;;;2.92;65.74;100039.84;5050504;28;20064;-44
2022/11/05 00:30:23;;;;;;;1.55;1.00;;;;;;;2.93;65.85;100039.81;5049203;28;20133;-47
2022/11/05 00:32:50;;;;;;;3.17;1.05;;;;;;;2.93;65.96;100044.13;5015413;28;20416;-45
2022/11/05 00:35:18;;;;;;;2.35;1.48;;;;;;;2.93;65.74;100044.13;5051416;28;20072;-45
2022/11/05 00:37:47;;;;;;;2.95;1.70;;;;;;;2.88;65.75;100041.53;5036785;28;20033;-41
2022/11/05 00:40:13;;;;;;;2.78;0.90;;;;;;;2.79;65.53;100030.38;5035751;28;20160;-44
2022/11/05 00:45:27;;;;;;;1.88;1.02;;;;;;;2.86;65.40;100050.09;5051024;28;20090;-41
2022/11/05 00:50:38;;;;;;;2.25;1.00;;;;;;;2.51;65.36;99989.22;5049815;28;20079;-44
2022/11/05 00:53:04;;;;;;;1.50;1.00;;;;;;;2.82;65.08;100056.09;5049545;28;20057;-42
2022/11/05 00:55:36;;;;;;;2.00;1.50;;;;;;;2.81;65.49;100055.22;5049816;28;20518;-41
2022/11/05 00:58:04;;;;;;;3.17;1.38;;;;;;;2.83;65.49;100055.19;5049973;28;20044;-43
2022/11/05 01:00:32;;;;;;;2.03;1.40;;;;;;;2.82;65.45;100053.50;5050217;28;20061;-43
2022/11/05 01:02:59;;;;;;;2.65;1.33;;;;;;;2.81;65.49;100060.34;5049454;28;20040;-45
2022/11/05 01:05:25;;;;;;;3.45;1.27;;;;;;;2.79;65.62;100062.06;5049393;28;20075;-45
2022/11/05 01:07:52;;;;;;;1.92;0.98;;;;;;;2.78;65.55;100068.03;5049951;28;20083;-41
2022/11/05 01:10:18;;;;;;;2.05;1.00;;;;;;;2.78;65.48;100065.47;5048284;28;20053;-44
2022/11/05 01:12:47;;;;;;;2.75;0.95;;;;;;;2.76;65.04;100059.47;5048048;28;20467;-43
2022/11/05 01:15:14;;;;;;;2.47;0.77;;;;;;;2.75;65.43;100072.31;5031887;28;20114;-43
2022/11/05 01:17:39;;;;;;;1.92;0.93;;;;;;;2.72;65.36;100067.19;5032475;28;20393;-44
2022/11/05 01:20:07;;;;;;;2.22;1.17;;;;;;;2.69;65.55;100073.16;5048800;28;20123;-47
2022/11/05 01:22:36;;;;;;;1.55;1.20;;;;;;;2.71;65.54;100081.72;5047719;28;20053;-46
2022/11/05 01:25:02;;;;;;;2.43;1.30;;;;;;;2.74;65.42;100081.72;5045065;28;20135;-46
2022/11/05 01:27:29;;;;;;;1.58;1.05;;;;;;;2.74;65.57;100080.84;5049223;28;20136;-41
2022/11/05 01:29:56;;;;;;;3.38;1.38;;;;;;;2.74;65.61;100081.72;5048529;28;20045;-45
2022/11/05 01:32:23;;;;;;;2.25;1.38;;;;;;;2.73;65.25;100086.84;5048080;28;20049;-44
2022/11/05 01:34:49;;;;;;;2.88;1.00;;;;;;;2.59;65.55;100053.44;5048277;28;20579;-45
2022/11/05 01:37:15;;;;;;;2.08;1.15;;;;;;;2.75;65.45;100087.72;5036149;28;20136;-45
2022/11/05 01:39:41;;;;;;;2.95;1.20;;;;;;;2.62;65.56;100060.31;5049908;28;20091;-42
2022/11/05 01:42:14;;;;;;;2.05;1.02;;;;;;;2.75;65.43;100087.72;5045654;28;20045;-43
2022/11/05 01:45:14;;;;;;;1.73;1.00;;;;;;;2.74;65.60;100088.56;5011537;28;20128;-42
2022/11/05 01:47:43;;;;;;;2.20;1.15;;;;;;;2.73;65.74;100092.81;5040824;28;20443;-44
2022/11/05 01:50:43;;;;;;;2.38;1.20;;;;;;;2.74;65.64;100092.00;5048061;28;20041;-43
2022/11/05 01:53:24;;;;;;;1.65;1.27;;;;;;;2.73;65.86;100097.09;5049088;28;20032;-43
2022/11/05 01:56:11;;;;;;;2.20;1.17;;;;;;;2.71;65.70;100091.13;5047898;28;20083;-43
2022/11/05 01:58:42;;;;;;;2.55;1.60;;;;;;;2.67;65.69;100102.25;5045187;28;20112;-43
2022/11/05 02:01:08;;;;;;;2.75;1.40;;;;;;;2.53;65.55;100073.94;5037504;28;20048;-46
2022/11/05 02:03:34;;;;;;;2.25;1.30;;;;;;;2.56;65.81;100076.53;5014109;28;20532;-43
2022/11/05 02:06:02;;;;;;;1.98;1.30;;;;;;;2.71;66.04;100104.81;5012869;28;20045;-41
2022/11/05 02:08:55;;;;;;;2.92;1.45;;;;;;;2.70;65.81;100103.09;5028262;28;20046;-45
2022/11/05 02:11:23;;;;;;;2.88;1.52;;;;;;;2.69;65.82;100101.38;5038532;28;20049;-47
2022/11/05 02:13:49;;;;;;;2.55;1.15;;;;;;;2.68;66.00;100104.78;5046658;28;20040;-43
2022/11/05 02:16:34;;;;;;;2.53;1.50;;;;;;;2.69;66.03;100105.66;5047782;28;20068;-42
2022/11/05 02:19:32;;;;;;;4.75;1.60;;;;;;;2.65;65.95;100104.78;5049205;28;20047;-45
2022/11/05 02:22:33;;;;;;;3.50;2.13;;;;;;;2.70;66.09;100105.66;5043272;28;20439;-42
2022/11/05 02:25:31;;;;;;;2.88;1.80;;;;;;;2.69;66.42;100109.09;5049252;28;20055;-47
2022/11/05 02:28:26;;;;;;;4.50;1.80;;;;;;;2.69;66.27;100110.78;5044751;28;20504;-43
2022/11/05 02:31:09;;;;;;;2.45;1.60;;;;;;;2.70;66.58;100115.06;5026066;28;20059;-44
2022/11/05 02:33:55;;;;;;;3.97;2.22;;;;;;;2.71;66.75;100111.66;5026962;28;20106;-46
2022/11/05 02:36:53;;;;;;;3.97;2.15;;;;;;;2.57;67.08;100098.75;5026408;28;20131;-42
2022/11/05 02:39:26;;;;;;;3.30;1.80;;;;;;;2.70;67.37;100115.94;5009162;28;20084;-43
2022/11/05 02:42:10;;;;;;;5.03;1.98;;;;;;;2.68;67.26;100112.50;4992777;28;20049;-44
2022/11/05 02:44:56;;;;;;;3.45;2.00;;;;;;;2.67;67.40;100123.59;4994077;28;20041;-43
2022/11/05 02:47:44;;;;;;;4.35;1.85;;;;;;;2.69;67.63;100127.06;5009016;28;20165;-44
2022/11/05 02:50:19;;;;;;;4.20;2.15;;;;;;;2.68;67.58;100130.47;5010267;28;20069;-45
2022/11/05 02:53:02;;;;;;;4.20;2.05;;;;;;;2.68;68.14;100127.91;5026822;28;20123;-44
2022/11/05 02:55:31;;;;;;;7.10;2.90;;;;;;;2.69;68.06;100128.75;5011708;28;20053;-44
2022/11/05 02:57:58;;;;;;;3.55;2.05;;;;;;;2.69;68.31;100134.75;5029447;28;20512;-45
2022/11/05 03:00:44;;;;;;;3.33;2.05;;;;;;;2.68;68.49;100135.59;5013235;28;20061;-43
2022/11/05 03:03:33;;;;;;;4.88;2.50;;;;;;;2.68;68.29;100129.59;5011795;28;20044;-45
2022/11/05 03:06:04;;;;;;;5.27;2.70;;;;;;;2.69;68.21;100129.63;5029196;28;20539;-45
2022/11/05 03:08:48;;;;;;;2.88;1.67;;;;;;;2.68;68.36;100134.75;5066824;28;20064;-45
2022/11/05 03:11:17;;;;;;;2.63;1.80;;;;;;;2.67;68.10;100138.19;5068648;28;20520;-44
2022/11/05 03:14:15;;;;;;;2.58;1.92;;;;;;;2.49;68.16;100110.72;5050921;28;20045;-44
2022/11/05 03:17:06;;;;;;;3.30;1.40;;;;;;;2.68;67.98;100145.88;5009087;28;20097;-42
2022/11/05 03:19:39;;;;;;;2.67;1.65;;;;;;;2.70;68.08;100144.19;4993317;28;20053;-42
2022/11/05 03:22:11;;;;;;;3.40;2.10;;;;;;;2.70;67.98;100148.44;4993121;28;20054;-44
2022/11/05 03:24:41;;;;;;;5.50;2.55;;;;;;;2.71;67.98;100147.59;4974502;28;20064;-43
2022/11/05 03:27:21;;;;;;;3.53;2.15;;;;;;;2.72;67.89;100151.91;4984761;28;20041;-44
2022/11/05 03:29:50;;;;;;;3.85;1.80;;;;;;;2.73;67.86;100154.44;5010433;28;20064;-44
2022/11/05 03:32:19;;;;;;;2.55;1.48;;;;;;;2.75;67.70;100155.31;5007993;28;20069;-46
2022/11/05 03:34:51;;;;;;;3.13;2.00;;;;;;;2.77;67.75;100160.47;4974682;28;20125;-45
2022/11/05 03:37:18;;;;;;;3.60;2.05;;;;;;;2.73;67.73;100158.72;4986290;28;20101;-47
2022/11/05 03:39:49;;;;;;;4.65;2.20;;;;;;;2.73;67.62;100158.72;4993701;28;20073;-44
2022/11/05 03:42:17;;;;;;;3.22;2.45;;;;;;;2.72;67.68;100157.84;5008517;28;20073;-46
2022/11/05 03:44:47;;;;;;;5.22;2.25;;;;;;;2.59;67.83;100153.53;5010016;28;20050;-42
2022/11/05 03:47:17;;;;;;;4.10;2.25;;;;;;;2.70;67.70;100174.13;5008594;28;20060;-44
2022/11/05 03:49:51;;;;;;;4.13;1.77;;;;;;;2.71;67.72;100174.13;4976887;28;20108;-41
2022/11/05 03:52:21;;;;;;;3.85;2.38;;;;;;;2.71;67.91;100184.41;4993723;28;20042;-47
2022/11/05 03:54:47;;;;;;;4.80;2.53;;;;;;;2.57;68.00;100162.91;5049807;28;20084;-46
2022/11/05 03:57:20;;;;;;;3.00;1.63;;;;;;;2.73;68.22;100197.22;5051242;28;20075;-45
2022/11/05 03:59:48;;;;;;;3.10;2.25;;;;;;;2.73;68.32;100190.38;5050723;28;20060;-44
2022/11/05 04:02:16;;;;;;;3.63;2.00;;;;;;;2.71;68.16;100198.94;5049724;28;20041;-41
2022/11/05 04:04:41;;;;;;;4.32;1.95;;;;;;;2.72;68.07;100193.78;5016551;28;20066;-44
2022/11/05 04:15:24;;;;;;;4.03;2.20;;;;;;;2.69;68.52;100193.78;5050663;28;20082;-46
2022/11/05 04:17:50;;;;;;;4.20;2.08;;;;;;;2.36;68.68;100140.56;5050934;28;20068;-43
2022/11/05 04:25:49;;;;;;;5.00;2.58;;;;;;;2.69;68.64;100193.78;5031463;28;20160;-43
2022/11/05 04:28:16;;;;;;;4.78;2.22;;;;;;;2.70;69.21;100197.22;5048847;28;20055;-46
2022/11/05 04:30:45;;;;;;;3.20;2.17;;;;;;;2.70;68.97;100197.22;5051476;28;20037;-45
2022/11/05 04:33:15;;;;;;;3.85;1.80;;;;;;;2.70;68.88;100194.66;5049146;28;20120;-46
2022/11/05 04:35:47;;;;;;;2.80;1.95;;;;;;;2.71;68.90;100197.25;5049470;28;20098;-43
2022/11/05 04:38:18;;;;;;;6.10;2.42;;;;;;;2.72;69.08;100206.63;5015501;28;21803;-44
2022/11/05 04:40:45;;;;;;;4.70;2.85;;;;;;;2.73;69.07;100204.94;5033252;28;20199;-43
2022/11/05 04:43:13;;;;;;;4.68;2.83;;;;;;;2.58;69.21;100181.75;5046920;28;20041;-44
2022/11/05 04:45:39;;;;;;;6.85;3.03;;;;;;;2.73;69.08;100203.22;5017071;28;20070;-42
2022/11/05 04:48:05;;;;;;;6.53;3.08;;;;;;;2.74;69.45;100206.66;5045988;28;20037;-43
2022/11/05 04:50:31;;;;;;;7.53;3.25;;;;;;;2.74;69.42;100201.53;5049724;28;20036;-43
2022/11/05 04:52:57;;;;;;;5.07;2.15;;;;;;;2.73;69.36;100205.78;5048987;28;20192;-41
2022/11/05 04:55:23;;;;;;;3.53;1.83;;;;;;;2.75;69.18;100208.38;5050936;28;20413;-45
2022/11/05 04:57:50;;;;;;;5.50;1.98;;;;;;;2.59;69.24;100189.47;5037605;28;20127;-45
2022/11/05 05:00:17;;;;;;;4.32;2.40;;;;;;;2.78;68.92;100210.94;5048108;28;20075;-43
2022/11/05 05:02:44;;;;;;;6.35;3.10;;;;;;;2.77;68.92;100212.69;5048091;28;20045;-42
2022/11/05 05:05:10;;;;;;;5.90;3.47;;;;;;;2.77;69.09;100220.38;5037998;28;20037;-43
2022/11/05 05:07:36;;;;;;;4.22;2.58;;;;;;;2.77;69.32;100216.94;5045689;28;20079;-43
2022/11/05 05:10:04;;;;;;;5.35;2.38;;;;;;;2.75;69.31;100216.94;5027850;28;20095;-44
2022/11/05 05:12:31;;;;;;;4.22;2.97;;;;;;;2.79;69.29;100220.38;5049821;28;20098;-42
2022/11/05 05:14:57;;;;;;;6.25;2.53;;;;;;;2.79;69.06;100215.25;5047928;28;20049;-42
2022/11/05 05:17:26;;;;;;;4.95;3.33;;;;;;;2.80;69.01;100224.66;5049019;28;20509;-42
2022/11/05 05:22:38;;;;;;;4.95;2.55;;;;;;;2.82;68.61;100231.53;5048439;28;20136;-42
2022/11/05 05:25:04;;;;;;;4.35;2.35;;;;;;;2.84;68.67;100229.81;5057472;28;20474;-43
2022/11/05 05:27:30;;;;;;;5.00;1.80;;;;;;;2.84;68.33;100232.38;5033821;28;20131;-43
2022/11/05 05:29:57;;;;;;;3.95;1.40;;;;;;;2.85;68.24;100231.53;5047355;28;20032;-43
2022/11/05 05:32:23;;;;;;;2.38;1.00;;;;;;;2.87;68.16;100242.69;5047571;28;20491;-42
2022/11/05 05:34:50;;;;;;;4.47;1.58;;;;;;;2.87;68.03;100240.13;5048850;28;20510;-42
2022/11/05 05:37:16;;;;;;;3.13;1.40;;;;;;;2.90;67.69;100240.13;5048957;28;20068;-42
2022/11/05 05:39:43;;;;;;;3.08;1.30;;;;;;;2.91;67.81;100246.13;5049337;28;20052;-43
2022/11/05 05:42:10;;;;;;;2.80;1.65;;;;;;;2.76;67.51;100228.94;5049847;28;20037;-45
2022/11/05 05:44:36;;;;;;;3.85;1.92;;;;;;;2.94;67.41;100254.69;5045408;28;20468;-41
2022/11/05 05:47:02;;;;;;;4.53;1.50;;;;;;;2.95;67.21;100260.69;5029697;28;20045;-45
2022/11/05 05:49:27;;;;;;;1.83;1.35;;;;;;;2.88;67.33;100252.09;5033889;28;20222;-43
2022/11/05 05:51:54;;;;;;;3.83;1.50;;;;;;;2.97;67.11;100259.88;5055934;28;20041;-47
2022/11/05 05:54:21;;;;;;;3.67;2.15;;;;;;;2.98;66.95;100265.88;5046120;28;20527;-42
2022/11/05 05:56:47;;;;;;;5.05;2.53;;;;;;;3.01;66.88;100265.00;5047803;28;20043;-42
2022/11/05 05:59:13;;;;;;;7.90;2.97;;;;;;;3.04;66.99;100270.16;5047342;28;20040;-45
2022/11/05 06:01:39;;;;;;;5.07;1.48;;;;;;;3.02;66.68;100267.59;5049293;28;20036;-45
2022/11/05 06:04:05;;;;;;;2.40;1.02;;;;;;;3.00;66.65;100266.72;5064750;28;20056;-42
2022/11/05 06:06:31;;;;;;;3.53;1.52;;;;;;;2.98;66.45;100274.41;5048304;28;20067;-44
2022/11/05 06:08:57;;;;;;;5.55;1.33;;;;;;;3.00;66.49;100269.28;5048851;28;20036;-44
2022/11/05 06:11:24;;;;;;;3.22;1.70;;;;;;;3.03;66.35;100282.16;5049485;28;20041;-43
2022/11/05 06:13:54;;;;;;;2.13;1.10;;;;;;;3.01;66.15;100282.97;5047978;28;20119;-42
2022/11/05 06:16:20;;;;;;;4.97;2.03;;;;;;;3.00;66.24;100282.13;5059711;28;20041;-42
2022/11/05 06:18:46;;;;;;;3.78;2.10;;;;;;;3.01;66.25;100276.16;5055679;28;20044;-42
2022/11/05 06:21:14;;;;;;;3.35;1.77;;;;;;;3.02;66.09;100280.44;5046614;28;20055;-42
2022/11/05 06:23:42;;;;;;;4.30;1.73;;;;;;;3.02;66.30;100282.13;5045177;28;20191;-41
2022/11/05 06:26:16;;;;;;;4.57;1.45;;;;;;;3.05;66.36;100290.72;5045142;28;20048;-43
2022/11/05 06:28:42;;;;;;;4.72;1.70;;;;;;;3.06;66.27;100286.44;5045029;28;20048;-44
2022/11/05 06:31:10;;;;;;;6.35;3.00;;;;;;;3.06;66.30;100289.88;5046246;28;20041;-43
2022/11/05 06:33:36;;;;;;;3.78;2.05;;;;;;;2.92;66.54;100263.25;5033610;28;20136;-51
2022/11/05 06:36:05;;;;;;;5.93;2.63;;;;;;;3.10;66.36;100290.72;5047670;28;20052;-46
2022/11/05 06:38:32;;;;;;;6.63;2.30;;;;;;;3.07;66.32;100286.47;5013357;28;20080;-51
2022/11/05 06:40:59;;;;;;;4.05;1.88;;;;;;;3.08;66.36;100292.44;5045673;28;20064;-44
2022/11/05 06:43:26;;;;;;;3.83;1.52;;;;;;;3.02;66.24;100297.56;5029888;28;20036;-45
2022/11/05 06:45:52;;;;;;;3.28;1.30;;;;;;;3.01;66.30;100301.81;5047491;28;20049;-46
2022/11/05 06:48:19;;;;;;;2.20;1.20;;;;;;;3.02;66.22;100290.72;5020736;28;20067;-41
2022/11/05 06:50:45;;;;;;;1.75;1.02;;;;;;;3.06;65.85;100297.56;5046508;28;20673;-41
2022/11/05 06:53:11;;;;;;;2.72;1.27;;;;;;;3.06;65.73;100295.00;5047610;28;20037;-45
2022/11/05 06:55:37;;;;;;;1.83;1.20;;;;;;;3.09;65.63;100287.31;5046313;28;20029;-50
2022/11/05 06:58:03;;;;;;;1.98;1.25;;;;;;;3.08;65.60;100293.31;5046698;28;20045;-44
2022/11/05 07:00:29;;;;;;;2.92;1.65;;;;;;;2.91;65.80;100276.94;5029421;28;20151;-47
2022/11/05 07:03:02;;;;;;;5.35;2.40;;;;;;;3.11;65.86;100305.31;5045475;28;20568;-45
2022/11/05 07:05:30;;;;;;;4.95;2.38;;;;;;;2.97;65.96;100275.28;5011851;28;20045;-44
2022/11/05 07:07:55;;;;;;;4.00;2.17;;;;;;;2.99;66.13;100288.97;5046189;28;20045;-42
2022/11/05 07:10:21;;;;;;;5.63;2.67;;;;;;;3.09;65.85;100304.47;5044650;28;20048;-43
2022/11/05 07:12:47;;;;;;;2.75;1.90;;;;;;;2.93;66.04;100281.22;5048985;28;20171;-48
2022/11/05 07:15:13;;;;;;;6.10;2.67;;;;;;;3.15;66.33;100318.16;5046358;28;20035;-46
2022/11/05 07:17:39;;;;;;;6.55;2.67;;;;;;;3.13;66.29;100319.88;5046688;28;20051;-48
2022/11/05 07:20:06;;;;;;;4.07;2.30;;;;;;;3.13;66.62;100326.72;5048511;28;20045;-43
2022/11/05 07:22:33;;;;;;;6.30;3.45;;;;;;;3.15;66.27;100335.28;5047270;28;20063;-45
2022/11/05 07:24:59;;;;;;;4.85;2.30;;;;;;;3.21;66.60;100343.03;5048553;28;20045;-43
2022/11/05 07:27:25;;;;;;;4.72;1.25;;;;;;;3.21;66.10;100328.50;5048339;28;20084;-46
2022/11/05 07:29:51;;;;;;;3.15;1.27;;;;;;;3.05;66.30;100312.97;5047377;28;20563;-45
2022/11/05 07:32:17;;;;;;;3.25;1.50;;;;;;;3.24;65.99;100340.50;5048501;28;20829;-45
2022/11/05 07:34:43;;;;;;;2.17;1.58;;;;;;;3.29;65.71;100349.09;5048218;28;20048;-43
2022/11/05 07:37:08;;;;;;;2.75;1.40;;;;;;;3.33;65.56;100349.13;5047556;28;20427;-44
2022/11/05 07:39:34;;;;;;;3.30;1.88;;;;;;;3.31;65.48;100349.94;5048202;28;20052;-45
2022/11/05 07:42:00;;;;;;;2.13;1.30;;;;;;;3.31;65.44;100347.38;5049169;28;20037;-45
2022/11/05 07:44:31;;;;;;;2.55;1.30;;;;;;;3.10;65.50;100311.28;5064351;28;20040;-45
2022/11/05 07:46:57;;;;;;;4.70;1.50;;;;;;;3.21;65.29;100323.34;5051610;28;20419;-45
2022/11/05 07:49:24;;;;;;;2.85;1.70;;;;;;;3.41;65.29;100360.28;5034626;28;20571;-48
2022/11/05 07:51:50;;;;;;;2.65;1.85;;;;;;;3.44;64.99;100364.59;5052198;28;20045;-44
2022/11/05 07:54:16;;;;;;;5.38;1.98;;;;;;;3.45;65.33;100362.88;5051250;28;20174;-44
2022/11/05 07:56:42;;;;;;;4.25;1.80;;;;;;;3.29;65.41;100331.13;5052050;28;20040;-43
2022/11/05 07:59:07;;;;;;;5.75;2.17;;;;;;;3.48;64.97;100355.19;5051245;28;20469;-48
2022/11/05 08:01:33;;;;;;;6.30;2.88;;;;;;;3.50;65.13;100354.34;5051163;28;20048;-46
2022/11/05 08:03:59;;;;;;;2.75;1.70;;;;;;;3.53;65.22;100356.06;5051359;28;20037;-43
2022/11/05 08:06:25;;;;;;;3.33;1.70;;;;;;;3.54;65.08;100352.66;5050538;28;20195;-44
2022/11/05 08:08:51;;;;;;;4.53;1.80;;;;;;;3.56;64.94;100353.53;5054056;28;20153;-45
2022/11/05 08:11:17;;;;;;;1.88;1.52;;;;;;;3.58;64.94;100359.50;5045763;28;20875;-43
2022/11/05 08:13:43;;;;;;;2.85;1.92;;;;;;;3.57;64.88;100355.22;5051205;28;20037;-46
2022/11/05 08:16:09;;;;;;;4.65;2.13;;;;;;;3.58;64.66;100367.22;5050599;28;20527;-41
2022/11/05 08:18:35;;;;;;;4.90;2.13;;;;;;;3.58;64.65;100368.09;5050160;28;20056;-42
2022/11/05 08:21:03;;;;;;;2.85;2.15;;;;;;;3.58;64.78;100360.38;5050134;28;20041;-42
2022/11/05 08:23:30;;;;;;;2.65;1.80;;;;;;;3.58;64.94;100362.09;5049705;28;20041;-42
2022/11/05 08:25:56;;;;;;;4.63;2.13;;;;;;;3.31;65.04;100325.13;5051192;28;20137;-39
2022/11/05 08:28:23;;;;;;;3.30;1.85;;;;;;;3.36;65.35;100343.97;5049870;28;20040;-38
2022/11/05 08:30:50;;;;;;;4.85;2.10;;;;;;;3.48;65.13;100356.03;5051283;28;20041;-40
2022/11/05 08:33:16;;;;;;;5.57;2.20;;;;;;;3.52;65.03;100367.19;5050077;28;20056;-40
2022/11/05 08:35:42;;;;;;;6.20;2.13;;;;;;;3.51;65.31;100368.91;5050138;28;20048;-40
2022/11/05 08:38:12;;;;;;;3.75;2.40;;;;;;;3.52;64.91;100375.75;5050590;28;20195;-40
2022/11/05 08:40:41;;;;;;;4.28;2.40;;;;;;;3.51;65.15;100373.22;5051153;28;20044;-42
2022/11/05 08:43:09;;;;;;;5.78;2.30;;;;;;;3.51;65.01;100379.19;5050807;28;20461;-39
2022/11/05 08:45:35;;;;;;;4.78;2.47;;;;;;;3.47;65.11;100368.88;5049368;28;20245;-40
2022/11/05 08:48:04;;;;;;;4.93;2.53;;;;;;;3.53;65.03;100380.06;5060225;28;20167;-41
2022/11/05 08:50:31;;;;;;;6.45;2.30;;;;;;;3.51;65.13;100380.94;5038218;28;20087;-40
2022/11/05 08:52:59;;;;;;;8.38;2.75;;;;;;;3.33;65.27;100355.97;5038301;28;20063;-41
2022/11/05 08:55:26;;;;;;;4.72;2.13;;;;;;;3.48;65.07;100383.47;5048162;28;20500;-41
2022/11/05 08:57:59;;;;;;;3.75;2.10;;;;;;;3.48;65.08;100388.59;5030812;28;20041;-43
2022/11/05 09:00:26;;;;;;;7.63;2.17;;;;;;;3.42;65.09;100382.56;5044288;28;20052;-41
2022/11/05 09:02:53;;;;;;;11.15;2.22;;;;;;;3.43;64.95;100375.72;5015061;28;20036;-41
2022/11/05 09:05:20;;;;;;;3.53;2.30;;;;;;;3.41;65.15;100378.28;5048129;28;20052;-43
2022/11/05 09:07:46;;;;;;;3.70;2.10;;;;;;;3.41;65.16;100373.13;5014186;28;20040;-40
2022/11/05 09:10:12;;;;;;;4.40;2.53;;;;;;;3.42;65.20;100368.84;5047847;28;20041;-40
2022/11/05 09:12:38;;;;;;;3.90;2.40;;;;;;;3.41;65.15;100370.56;5050440;28;20037;-40
2022/11/05 09:15:04;;;;;;;5.20;2.45;;;;;;;3.41;65.24;100362.00;5049007;28;20048;-40
2022/11/05 09:17:30;;;;;;;4.28;2.72;;;;;;;3.42;65.19;100366.28;5048976;28;20059;-41
2022/11/05 09:19:56;;;;;;;3.45;2.22;;;;;;;3.41;65.22;100364.56;5051805;28;20044;-41
2022/11/05 09:22:21;;;;;;;6.45;3.10;;;;;;;3.39;65.26;100369.72;5048861;28;20622;-41
2022/11/05 09:24:47;;;;;;;6.32;2.17;;;;;;;3.38;65.28;100378.28;5049189;28;20056;-40
2022/11/05 09:27:13;;;;;;;4.70;2.70;;;;;;;3.41;65.24;100373.13;5050338;28;20122;-40
2022/11/05 09:29:40;;;;;;;3.83;2.05;;;;;;;3.41;65.27;100375.72;5050570;28;20040;-41
2022/11/05 09:32:06;;;;;;;4.15;2.13;;;;;;;3.44;65.37;100374.03;5048958;28;20091;-38
2022/11/05 09:34:32;;;;;;;6.88;2.40;;;;;;;3.33;65.22;100349.13;5049460;28;20698;-39
2022/11/05 09:36:58;;;;;;;6.68;3.15;;;;;;;3.50;65.18;100376.63;5044838;28;20068;-39
2022/11/05 09:39:24;;;;;;;3.92;2.10;;;;;;;3.51;65.49;100391.22;5068291;28;20044;-40
2022/11/05 09:41:52;;;;;;;6.78;2.00;;;;;;;3.52;65.13;100386.06;5051757;28;20059;-39
2022/11/05 09:44:24;;;;;;;9.60;2.70;;;;;;;3.53;65.21;100384.34;5057251;28;20033;-40
2022/11/05 09:47:04;;;;;;;10.13;3.00;;;;;;;3.56;65.14;100384.38;5015628;28;20044;-40
2022/11/05 09:49:34;;;;;;;17.77;4.30;;;;;;;3.54;65.29;100386.94;5031917;28;20122;-41
2022/11/05 09:52:00;;;;;;;4.88;3.20;;;;;;;3.52;65.06;100390.31;5050059;28;20048;-41
2022/11/05 09:54:30;;;;;;;8.18;3.20;;;;;;;3.53;65.25;100392.91;5060215;28;20040;-40
2022/11/05 09:56:56;;;;;;;6.25;3.17;;;;;;;3.54;65.29;100391.22;5069508;28;20067;-39
2022/11/05 09:59:31;;;;;;;4.25;2.58;;;;;;;3.53;64.90;100389.47;5058310;28;20040;-41
2022/11/05 10:02:08;;;;;;;6.88;3.10;;;;;;;3.57;65.14;100386.06;5031865;28;20172;-39
2022/11/05 10:04:34;;;;;;;9.55;2.70;;;;;;;3.59;65.29;100392.09;5060373;28;20045;-39
2022/11/05 10:07:03;;;;;;;5.20;2.53;;;;;;;3.59;64.97;100392.94;5018731;28;20085;-41
2022/11/05 10:09:34;;;;;;;6.67;3.00;;;;;;;3.44;64.90;100369.75;5067666;28;20047;-39
2022/11/05 10:12:06;;;;;;;5.05;2.28;;;;;;;3.49;64.65;100375.75;5029750;28;20511;-41
2022/11/05 10:14:37;;;;;;;4.47;2.40;;;;;;;3.61;64.81;100409.22;5053117;28;20504;-41
2022/11/05 10:17:16;;;;;;;4.78;2.25;;;;;;;3.61;64.83;100410.97;5068390;28;20028;-40
2022/11/05 10:20:02;;;;;;;3.25;2.10;;;;;;;3.54;64.94;100409.19;5069644;28;20043;-41
2022/11/05 10:22:29;;;;;;;4.32;2.00;;;;;;;3.55;64.67;100416.94;5051759;28;20044;-41
2022/11/05 10:24:56;;;;;;;3.03;1.98;;;;;;;3.56;64.44;100418.63;5052650;28;20126;-41
2022/11/05 10:27:34;;;;;;;3.28;2.30;;;;;;;3.41;64.47;100388.56;5049519;28;20048;-41
2022/11/05 10:30:00;;;;;;;4.25;1.70;;;;;;;3.56;64.60;100410.91;5060302;28;20047;-42
2022/11/05 10:32:36;;;;;;;15.20;3.15;;;;;;;3.59;64.65;100416.09;5068300;28;20036;-41
2022/11/05 10:35:05;;;;;;;3.78;2.50;;;;;;;3.61;64.59;100411.78;5034788;28;20419;-39
2022/11/05 10:37:32;;;;;;;3.38;2.42;;;;;;;3.40;64.64;100376.56;5050208;28;20501;-39
2022/11/05 10:39:58;;;;;;;6.97;2.30;;;;;;;3.63;64.28;100410.09;5045934;28;20044;-41
2022/11/05 10:42:26;;;;;;;5.05;2.60;;;;;;;3.65;64.46;100405.84;5049559;28;20052;-42
2022/11/05 10:45:03;;;;;;;6.00;2.47;;;;;;;3.64;64.45;100410.97;5052767;28;20528;-40
2022/11/05 10:47:51;;;;;;;5.97;2.45;;;;;;;3.66;64.51;100411.84;5048399;28;20282;-41
2022/11/05 10:50:21;;;;;;;3.53;2.10;;;;;;;3.68;64.61;100412.69;5047414;28;20517;-40
2022/11/05 10:52:59;;;;;;;8.80;2.75;;;;;;;3.53;64.43;100379.19;5048188;28;20045;-41
2022/11/05 10:55:34;;;;;;;4.60;2.60;;;;;;;3.70;64.54;100406.72;5045973;28;20048;-39
2022/11/05 10:58:21;;;;;;;5.90;2.80;;;;;;;3.72;64.68;100414.44;5044301;28;20095;-41
2022/11/05 11:00:50;;;;;;;8.07;2.63;;;;;;;3.75;64.62;100414.47;5041944;28;20136;-39
2022/11/05 11:03:50;;;;;;;6.65;3.10;;;;;;;3.77;64.64;100417.88;5047965;28;20049;-40
2022/11/05 11:06:23;;;;;;;6.10;3.13;;;;;;;3.72;64.83;100419.56;5021930;28;20565;-40
2022/11/05 11:08:49;;;;;;;5.75;3.17;;;;;;;3.72;64.54;100417.84;5024103;28;20128;-40
2022/11/05 11:11:28;;;;;;;4.63;3.20;;;;;;;3.73;64.77;100427.28;5028038;28;20528;-40
2022/11/05 11:14:12;;;;;;;5.88;3.50;;;;;;;3.72;64.73;100423.00;5027602;28;20076;-40
2022/11/05 11:16:41;;;;;;;5.32;3.55;;;;;;;3.63;64.78;100425.53;5030766;28;20049;-40
2022/11/05 11:19:25;;;;;;;7.57;3.38;;;;;;;3.67;65.10;100434.97;5047531;28;21775;-39
2022/11/05 11:22:03;;;;;;;7.43;3.30;;;;;;;3.63;65.06;100434.94;5045727;28;20609;-40
2022/11/05 11:24:37;;;;;;;6.72;4.00;;;;;;;3.60;65.21;100429.81;5046212;28;20037;-39
2022/11/05 11:27:08;;;;;;;6.28;3.65;;;;;;;3.58;65.27;100434.94;5047069;28;20059;-40
2022/11/05 11:29:38;;;;;;;5.28;3.55;;;;;;;3.59;65.44;100439.22;5050026;28;20056;-40
2022/11/05 11:32:12;;;;;;;5.22;3.45;;;;;;;3.57;65.59;100440.06;5033977;28;20037;-39
2022/11/05 11:34:39;;;;;;;7.22;3.03;;;;;;;3.51;65.51;100442.63;5033296;28;20094;-39
2022/11/05 11:37:30;;;;;;;6.07;3.03;;;;;;;3.46;65.69;100445.13;5017515;28;20045;-40
2022/11/05 11:40:24;;;;;;;4.10;2.90;;;;;;;3.46;65.68;100444.25;5060363;28;20044;-39
2022/11/05 11:42:54;;;;;;;6.28;2.95;;;;;;;3.43;65.57;100450.25;5063409;28;20056;-39
2022/11/05 11:45:43;;;;;;;5.20;3.20;;;;;;;3.43;65.63;100452.84;5056332;28;20060;-39
2022/11/05 11:48:17;;;;;;;6.43;2.58;;;;;;;3.41;65.70;100452.81;5026905;28;20140;-38
2022/11/05 11:50:45;;;;;;;6.15;3.17;;;;;;;3.28;65.75;100435.59;5035233;28;20041;-39
2022/11/05 11:53:20;;;;;;;15.10;4.53;;;;;;;3.42;65.43;100461.38;5048808;28;20033;-40
2022/11/05 11:56:05;;;;;;;6.85;3.00;;;;;;;3.44;65.71;100456.28;5050430;28;20041;-40
2022/11/05 11:58:45;;;;;;;5.80;3.05;;;;;;;3.27;65.86;100433.00;5050970;28;20045;-40
2022/11/05 12:01:36;;;;;;;4.95;3.17;;;;;;;3.40;65.85;100452.81;5034291;28;20048;-39
2022/11/05 12:04:20;;;;;;;8.00;2.97;;;;;;;3.41;65.94;100449.38;5050132;28;20131;-39
2022/11/05 12:07:16;;;;;;;4.80;3.05;;;;;;;3.40;66.00;100445.13;5049040;28;20041;-42
2022/11/05 12:10:10;;;;;;;6.43;3.10;;;;;;;3.40;66.12;100455.41;5032396;28;20033;-39
2022/11/05 12:12:46;;;;;;;8.30;3.40;;;;;;;3.37;65.92;100452.78;5030757;28;20041;-38
2022/11/05 12:15:21;;;;;;;9.75;3.85;;;;;;;3.37;66.19;100458.78;5053157;28;20036;-39
2022/11/05 12:18:19;;;;;;;5.75;3.65;;;;;;;3.37;66.22;100463.06;5046567;28;20146;-41
2022/11/05 12:21:06;;;;;;;12.07;4.30;;;;;;;3.37;66.47;100463.94;4991628;28;20651;-40
2022/11/05 12:23:50;;;;;;;5.45;3.35;;;;;;;3.36;66.33;100466.47;5000641;28;20046;-42
2022/11/05 12:26:48;;;;;;;5.07;3.25;;;;;;;3.34;66.48;100463.06;5005063;28;20053;-39
2022/11/05 12:29:45;;;;;;;8.50;3.70;;;;;;;3.33;66.50;100461.34;5007196;28;20529;-39
2022/11/05 12:32:38;;;;;;;9.13;3.28;;;;;;;3.25;66.52;100465.53;4991623;28;20050;-39